Time;durP1;ratioP1;P1;durP2;ratioP2;P2;SDS_P1;SDS_P2;PMS_P1;PMS_P2;Temp;Humidity;BMP_temperature;BMP_pressure;BME280_temperature;BME280_humidity;BME280_pressure;Samples;Min_cycle;Max_cycle;Signal;HPM_P1;HPM_P2
2022/05/15 00:02:03;;;;;;;16.30;12.80;;;;;;;11.09;65.39;98945.41;220423;1278;27690;-70
2022/05/15 00:07:15;;;;;;;16.10;13.00;;;;;;;11.02;65.71;98944.60;220195;1274;304453;-70
2022/05/15 00:12:21;;;;;;;17.90;14.00;;;;;;;10.95;66.00;98946.60;220578;1274;22485;-71
2022/05/15 00:17:48;;;;;;;18.00;13.40;;;;;;;10.90;66.17;98949.73;220339;1277;22572;-71
2022/05/15 00:22:59;;;;;;;18.40;13.00;;;;;;;10.85;66.23;98949.52;220370;1278;24386;-70
2022/05/15 00:28:22;;;;;;;13.60;12.20;;;;;;;10.78;66.69;98947.17;220396;1277;22525;-71
2022/05/15 00:33:35;;;;;;;18.50;16.10;;;;;;;10.73;66.70;98948.73;220360;1274;23194;-71
2022/05/15 00:38:38;;;;;;;18.30;13.50;;;;;;;10.70;66.65;98947.80;220454;1274;23388;-70
2022/05/15 00:44:01;;;;;;;16.90;12.90;;;;;;;10.66;66.71;98948.43;220580;1274;25258;-71
2022/05/15 00:49:20;;;;;;;14.30;12.10;;;;;;;10.60;66.99;98945.75;219362;1274;24990;-71
2022/05/15 00:54:43;;;;;;;14.90;11.80;;;;;;;10.53;67.04;98945.77;220357;1278;22563;-71
2022/05/15 00:59:59;;;;;;;;;;;;;;;10.50;67.39;98946.23;220513;1277;22689;-70
2022/05/15 01:05:06;;;;;;;13.10;11.20;;;;;;;10.49;67.55;98942.27;220429;1278;25729;-70
2022/05/15 01:10:13;;;;;;;15.40;12.00;;;;;;;10.51;67.84;98939.69;220568;1274;22709;-70
2022/05/15 01:15:21;;;;;;;13.90;12.20;;;;;;;10.54;68.07;98943.36;220656;1274;25328;-70
2022/05/15 01:20:27;;;;;;;15.80;11.50;;;;;;;10.57;68.29;98937.28;221621;1274;23268;-70
2022/05/15 01:25:39;;;;;;;14.10;11.70;;;;;;;10.56;68.66;98937.45;220526;1275;25417;-71
2022/05/15 01:30:58;;;;;;;14.20;12.80;;;;;;;10.53;68.71;98943.16;220433;1275;23526;-71
2022/05/15 01:36:04;;;;;;;14.80;11.70;;;;;;;10.46;68.82;98936.41;220574;1275;22583;-71
2022/05/15 01:41:07;;;;;;;13.50;11.20;;;;;;;10.38;68.83;98940.63;221057;1275;22601;-71
2022/05/15 01:46:11;;;;;;;12.90;11.40;;;;;;;10.30;68.86;98937.35;220637;1275;22647;-71
2022/05/15 01:51:15;;;;;;;13.90;12.00;;;;;;;10.22;69.16;98942.61;220533;1275;22583;-71
2022/05/15 01:56:21;;;;;;;14.70;11.40;;;;;;;10.17;69.29;98946.40;220474;1274;24908;-71
2022/05/15 02:01:27;;;;;;;12.50;11.20;;;;;;;10.16;69.49;98949.59;220522;1274;23213;-71
2022/05/15 02:06:32;;;;;;;13.50;10.80;;;;;;;10.17;69.51;98951.02;220556;1279;22587;-71
2022/05/15 02:11:55;;;;;;;14.70;11.80;;;;;;;10.20;69.58;98952.75;220588;1275;22637;-71
2022/05/15 02:17:39;;;;;;;14.70;10.90;;;;;;;10.24;69.68;98953.30;220487;1277;22562;-71
2022/05/15 02:22:42;;;;;;;14.80;11.10;;;;;;;10.27;69.77;98952.20;220561;1277;22593;-71
2022/05/15 02:27:58;;;;;;;12.70;10.60;;;;;;;10.32;69.67;98953.17;220456;1280;22606;-71
2022/05/15 02:33:16;;;;;;;13.80;10.70;;;;;;;10.35;69.65;98957.52;220625;1274;25484;-71
2022/05/15 02:38:19;;;;;;;12.90;10.60;;;;;;;10.37;69.57;98960.17;220600;1274;23004;-71
2022/05/15 02:43:24;;;;;;;12.80;10.40;;;;;;;10.38;69.42;98963.27;220461;1275;23458;-71
2022/05/15 02:53:49;;;;;;;10.50;9.40;;;;;;;10.41;69.38;98968.92;221279;1274;22631;-70
2022/05/15 02:58:54;;;;;;;14.10;11.00;;;;;;;10.45;69.30;98967.92;218832;1275;22586;-71
2022/05/15 03:04:02;;;;;;;11.90;10.40;;;;;;;10.55;69.41;98970.14;220369;1274;22533;-70
2022/05/15 03:09:33;;;;;;;12.60;10.80;;;;;;;10.66;69.44;98972.54;220698;1274;22609;-70
2022/05/15 03:14:44;;;;;;;14.30;10.30;;;;;;;10.76;69.64;98973.66;220650;1274;24287;-70
2022/05/15 03:19:54;;;;;;;12.80;10.10;;;;;;;10.87;69.78;98978.29;220427;1274;25325;-70
2022/05/15 03:24:59;;;;;;;14.90;11.40;;;;;;;10.94;69.83;98977.55;220444;1275;23262;-71
2022/05/15 03:30:22;;;;;;;13.70;10.70;;;;;;;11.02;69.89;98977.19;220568;1275;22624;-71
2022/05/15 03:35:42;;;;;;;12.10;10.30;;;;;;;11.11;69.69;98982.45;220576;1275;22632;-71
2022/05/15 03:40:47;;;;;;;13.30;11.40;;;;;;;11.15;69.73;98985.83;220508;1275;22765;-71
2022/05/15 03:45:50;;;;;;;14.70;11.00;;;;;;;11.15;69.87;98990.55;220824;1274;22711;-70
2022/05/15 03:50:55;;;;;;;13.30;11.90;;;;;;;11.12;69.77;98994.45;218938;1275;22736;-70
2022/05/15 03:55:59;;;;;;;14.20;11.50;;;;;;;11.11;69.84;99002.22;220094;1275;25344;-71
2022/05/15 04:01:14;;;;;;;16.50;12.10;;;;;;;11.17;69.98;99008.45;219141;1274;25249;-72
2022/05/15 04:06:19;;;;;;;15.40;12.00;;;;;;;11.16;69.63;99005.18;220399;1277;22949;-70
2022/05/15 04:11:28;;;;;;;14.20;11.20;;;;;;;11.18;69.84;99006.83;218798;1275;22552;-71
2022/05/15 04:16:51;;;;;;;12.10;10.80;;;;;;;11.23;69.90;99008.09;220504;1274;25117;-71
2022/05/15 04:21:54;;;;;;;15.00;12.10;;;;;;;11.33;69.89;99016.40;220529;1275;22574;-71
2022/05/15 04:27:14;;;;;;;13.30;11.30;;;;;;;11.41;69.69;99017.22;220511;1274;22538;-71
2022/05/15 04:32:31;;;;;;;15.40;11.90;;;;;;;11.46;69.83;99023.48;220721;1274;22595;-71
2022/05/15 04:37:41;;;;;;;14.30;11.70;;;;;;;11.49;70.04;99028.70;220631;1274;26384;-70
2022/05/15 04:42:56;;;;;;;14.30;11.00;;;;;;;11.62;70.04;99035.25;220738;1274;22684;-70
2022/05/15 04:48:01;;;;;;;15.20;12.50;;;;;;;11.73;70.03;99036.34;220678;1274;25316;-70
2022/05/15 04:53:07;;;;;;;15.30;11.80;;;;;;;11.73;69.82;99042.34;220706;1275;22712;-71
2022/05/15 04:58:15;;;;;;;14.00;11.80;;;;;;;11.74;70.02;99045.92;220671;1275;22594;-71
2022/05/15 05:03:34;;;;;;;15.40;12.00;;;;;;;11.92;70.18;99051.27;220630;1274;22599;-71
2022/05/15 05:08:57;;;;;;;17.00;12.10;;;;;;;12.12;69.89;99064.33;221534;1274;24776;-71
2022/05/15 05:14:19;;;;;;;16.40;12.10;;;;;;;12.33;69.97;99065.35;220625;1275;22950;-70
2022/05/15 05:19:51;;;;;;;14.90;11.60;;;;;;;12.57;69.86;99066.22;220708;1274;22669;-71
2022/05/15 05:25:14;;;;;;;15.60;11.50;;;;;;;12.81;69.42;99067.42;220721;1274;22548;-72
2022/05/15 05:30:28;;;;;;;16.80;11.80;;;;;;;12.98;68.93;99069.64;220625;1275;24306;-71
2022/05/15 05:35:37;;;;;;;12.90;10.80;;;;;;;13.12;68.67;99078.91;220719;1274;24244;-71
2022/05/15 05:40:47;;;;;;;13.80;10.20;;;;;;;13.32;68.23;99082.84;221715;1273;24229;-71
2022/05/15 05:45:52;;;;;;;14.00;11.00;;;;;;;13.52;68.01;99081.28;220805;1274;22864;-71
2022/05/15 05:50:57;;;;;;;13.30;10.20;;;;;;;13.79;67.84;99081.17;220748;1274;24220;-71
2022/05/15 05:56:08;;;;;;;11.50;8.50;;;;;;;14.10;67.35;99088.41;220907;1274;24230;-71
2022/05/15 06:01:13;;;;;;;11.80;8.10;;;;;;;14.42;66.64;99087.67;220653;1275;22544;-72
2022/05/15 06:06:26;;;;;;;10.40;6.80;;;;;;;14.75;65.90;99096.78;220824;1274;22541;-70
2022/05/15 06:11:38;;;;;;;8.50;6.50;;;;;;;14.97;64.84;99107.41;220434;1276;24324;-70
2022/05/15 06:16:48;;;;;;;12.10;6.90;;;;;;;15.14;64.14;99107.54;220603;1274;22672;-72
2022/05/15 06:22:04;;;;;;;9.60;5.50;;;;;;;15.27;63.45;99111.48;220567;1274;22584;-71
2022/05/15 06:27:23;;;;;;;8.80;6.00;;;;;;;15.42;62.55;99116.91;220480;1276;22583;-71
2022/05/15 06:32:28;;;;;;;8.50;5.70;;;;;;;15.51;61.87;99116.36;220817;1274;25296;-73
2022/05/15 06:37:31;;;;;;;8.70;5.20;;;;;;;15.52;61.13;99118.73;220905;1274;24155;-71
2022/05/15 06:42:34;;;;;;;7.50;4.80;;;;;;;15.66;60.79;99123.84;220904;1274;22560;-70
2022/05/15 06:47:39;;;;;;;9.20;4.60;;;;;;;15.85;60.36;99123.77;221228;1274;22540;-72
2022/05/15 06:52:41;;;;;;;7.50;4.60;;;;;;;16.13;60.15;99127.81;220646;1274;24186;-70
2022/05/15 06:57:47;;;;;;;5.70;3.90;;;;;;;16.39;59.54;99123.64;220678;1274;25397;-72
2022/05/15 07:02:49;;;;;;;8.10;3.80;;;;;;;16.44;58.66;99128.83;221004;1274;22582;-70
2022/05/15 07:07:54;;;;;;;6.40;3.30;;;;;;;16.54;58.29;99132.41;220794;1274;24233;-72
2022/05/15 07:13:00;;;;;;;6.30;3.40;;;;;;;16.70;57.49;99138.06;220657;1274;22534;-71
2022/05/15 07:18:07;;;;;;;5.00;3.10;;;;;;;16.78;57.04;99138.14;220581;1274;22785;-71
2022/05/15 07:23:15;;;;;;;4.80;3.20;;;;;;;16.89;56.74;99137.42;220534;1274;25040;-70
2022/05/15 07:28:21;;;;;;;7.90;3.20;;;;;;;16.83;55.83;99142.48;220419;1275;25093;-70
2022/05/15 07:33:39;;;;;;;7.30;3.90;;;;;;;16.82;55.65;99139.27;220422;1274;22625;-72
2022/05/15 07:38:42;;;;;;;5.90;3.00;;;;;;;16.97;55.17;99142.70;220513;1274;25370;-71
2022/05/15 07:43:47;;;;;;;4.90;2.90;;;;;;;17.15;54.94;99144.84;221473;1275;25490;-70
2022/05/15 07:48:54;;;;;;;5.00;3.10;;;;;;;17.40;54.42;99146.48;220629;1274;23216;-71
2022/05/15 07:53:56;;;;;;;3.90;2.60;;;;;;;17.47;53.84;99151.86;220518;1274;22589;-72
2022/05/15 07:59:11;;;;;;;7.60;2.60;;;;;;;17.52;53.82;99154.08;220521;1275;22539;-71
2022/05/15 08:04:28;;;;;;;6.40;2.80;;;;;;;17.67;53.87;99156.16;220742;1274;22583;-71
2022/05/15 08:09:32;;;;;;;5.90;2.60;;;;;;;17.98;53.38;99149.57;220578;1274;22535;-71
2022/05/15 08:14:38;;;;;;;7.20;2.70;;;;;;;18.17;52.68;99157.55;220525;1276;27425;-71
2022/05/15 08:25:04;;;;;;;5.30;2.50;;;;;;;18.34;52.00;99158.10;220389;1277;22593;-71
2022/05/15 08:30:08;;;;;;;6.60;2.50;;;;;;;18.46;51.15;99159.09;220453;1274;22553;-70
2022/05/15 08:35:10;;;;;;;4.80;2.70;;;;;;;18.66;51.27;99153.78;219584;1274;22637;-70
2022/05/15 08:40:35;;;;;;;7.20;3.40;;;;;;;18.88;50.31;99156.95;219031;1274;24327;-71
2022/05/15 08:46:13;;;;;;;6.00;2.60;;;;;;;18.71;50.30;99152.52;220885;1274;24205;-71
2022/05/15 08:51:15;;;;;;;8.00;4.30;;;;;;;18.70;50.16;99154.23;220611;1274;25266;-72
2022/05/15 08:56:19;;;;;;;5.20;2.40;;;;;;;18.58;49.81;99156.37;220592;1274;22570;-71
2022/05/15 09:01:24;;;;;;;5.40;2.70;;;;;;;18.78;49.77;99156.84;220596;1275;25450;-70
2022/05/15 09:06:36;;;;;;;3.70;2.10;;;;;;;18.98;48.71;99154.37;220958;1274;22546;-71
2022/05/15 09:12:22;;;;;;;5.90;2.30;;;;;;;19.05;48.49;99154.62;220431;1275;22595;-71
2022/05/15 09:17:31;;;;;;;6.30;2.10;;;;;;;18.99;48.03;99157.33;218855;1275;22713;-71
2022/05/15 09:22:41;;;;;;;5.00;1.90;;;;;;;18.66;47.85;99159.27;219203;1275;24291;-71
2022/05/15 09:27:58;;;;;;;;;;;;;;;18.84;48.19;99159.54;222154;1274;24453;-71
2022/05/15 09:33:01;;;;;;;6.00;2.20;;;;;;;19.15;47.38;99159.30;220208;1276;22597;-71
2022/05/15 09:38:27;;;;;;;4.50;2.30;;;;;;;19.29;46.61;99156.27;220499;1276;22561;-71
2022/05/15 09:43:49;;;;;;;4.80;2.30;;;;;;;19.43;46.37;99153.61;221037;1274;22602;-72
2022/05/15 09:48:57;;;;;;;5.90;1.90;;;;;;;19.77;45.54;99156.18;220652;1274;24414;-72
2022/05/15 09:54:02;;;;;;;4.90;1.90;;;;;;;20.01;45.17;99161.34;220672;1275;22633;-72
2022/05/15 09:59:16;;;;;;;4.30;2.00;;;;;;;20.03;44.98;99164.92;220532;1275;22715;-70
2022/05/15 10:04:22;;;;;;;4.80;1.90;;;;;;;20.03;44.49;99164.59;220730;1274;22652;-71
2022/05/15 10:09:38;;;;;;;5.70;1.80;;;;;;;20.37;43.33;99165.77;220747;1275;22538;-72
2022/05/15 10:14:46;;;;;;;4.70;2.50;;;;;;;20.45;42.91;99171.20;221061;1274;22557;-75
2022/05/15 10:20:07;;;;;;;5.00;2.00;;;;;;;20.32;43.36;99171.84;220799;1275;24120;-72
2022/05/15 10:25:39;;;;;;;3.60;2.00;;;;;;;20.30;43.61;99165.11;221204;1274;22559;-71
2022/05/15 10:31:39;;;;;;;4.80;1.70;;;;;;;20.61;43.04;99162.65;221047;1275;22578;-71
2022/05/15 10:36:57;;;;;;;3.40;1.60;;;;;;;20.58;41.55;99161.84;220524;1276;22551;-70
2022/05/15 10:42:19;;;;;;;3.80;2.10;;;;;;;20.35;41.09;99162.84;220574;1274;22658;-72
2022/05/15 10:47:47;;;;;;;5.80;2.10;;;;;;;19.95;41.28;99159.38;220690;1274;26385;-71
2022/05/15 10:57:21;;;;;;;4.30;1.80;;;;;;;19.67;42.43;99159.98;220558;1275;25121;-71
2022/05/15 10:58:40;;;;;;;4.70;1.50;;;;;;;19.87;42.07;99153.40;220664;1277;24842;-71
2022/05/15 11:04:12;;;;;;;4.20;1.60;;;;;;;20.11;40.82;99155.06;220543;1274;25371;-71
2022/05/15 11:09:33;;;;;;;3.20;1.40;;;;;;;20.44;40.23;99142.48;220667;1275;25432;-70
2022/05/15 11:15:14;;;;;;;3.70;1.30;;;;;;;20.55;39.39;99144.21;220596;1274;22974;-71
2022/05/15 11:20:40;;;;;;;2.60;1.30;;;;;;;20.22;38.90;99145.19;220425;1276;25456;-71
2022/05/15 11:26:15;;;;;;;3.10;1.30;;;;;;;20.35;39.14;99136.09;221008;1276;26494;-70
2022/05/15 11:31:22;;;;;;;4.00;1.60;;;;;;;20.56;38.38;99133.73;220496;1274;22879;-71
2022/05/15 11:36:25;;;;;;;4.10;1.20;;;;;;;20.71;38.81;99125.27;220615;1274;22668;-70
2022/05/15 11:41:36;;;;;;;3.20;1.60;;;;;;;20.81;38.37;99123.48;220566;1274;22604;-71
2022/05/15 11:46:59;;;;;;;4.20;2.50;;;;;;;20.76;38.04;99122.30;220594;1274;22616;-71
2022/05/15 11:52:04;;;;;;;3.70;1.80;;;;;;;20.91;38.08;99119.91;220474;1277;22581;-70
2022/05/15 11:57:15;;;;;;;2.50;1.30;;;;;;;21.08;37.53;99114.51;220563;1275;24269;-70
2022/05/15 12:02:27;;;;;;;7.50;4.70;;;;;;;21.27;37.54;99113.96;222026;1275;23206;-70
2022/05/15 12:08:31;;;;;;;;;;;;;;;;;;;;;
2022/05/15 12:13:40;;;;;;;3.10;1.20;;;;;;;20.92;37.45;99105.84;220797;1274;25518;-70
2022/05/15 12:19:25;;;;;;;3.90;1.50;;;;;;;20.92;37.54;99103.44;220327;1276;25361;-70
2022/05/15 12:24:47;;;;;;;2.40;1.60;;;;;;;20.94;37.20;99106.21;221001;1276;22542;-70
2022/05/15 12:30:35;;;;;;;3.50;1.50;;;;;;;20.92;37.27;99099.63;221037;1275;22534;-71
2022/05/15 12:35:43;;;;;;;2.80;1.10;;;;;;;20.95;37.83;99098.31;220476;1275;22585;-71
2022/05/15 12:41:05;;;;;;;3.50;1.60;;;;;;;20.95;37.45;99092.00;220609;1274;22634;-70
2022/05/15 12:46:40;;;;;;;2.40;1.20;;;;;;;20.96;37.24;99083.08;219260;1275;22578;-71
2022/05/15 12:51:55;;;;;;;3.50;2.30;;;;;;;20.98;37.22;99077.47;220563;1275;22594;-70
2022/05/15 12:57:25;;;;;;;2.40;1.50;;;;;;;21.05;37.07;99069.77;220522;1275;24807;-71
2022/05/15 13:02:44;;;;;;;3.00;1.50;;;;;;;21.22;37.10;99074.70;220543;1276;22880;-71
2022/05/15 13:07:57;;;;;;;3.30;1.90;;;;;;;21.11;37.09;99071.62;221975;1276;24229;-71
2022/05/15 13:13:09;;;;;;;5.40;3.60;;;;;;;21.05;37.55;99064.24;221130;1274;25342;-69
2022/05/15 13:18:23;;;;;;;3.10;1.70;;;;;;;21.05;37.40;99059.25;221070;1275;22700;-71
2022/05/15 13:23:31;;;;;;;2.90;1.70;;;;;;;21.02;37.05;99050.41;220876;1275;22567;-71
2022/05/15 13:28:37;;;;;;;4.00;2.10;;;;;;;21.04;36.91;99052.77;221558;1275;23664;-70
2022/05/15 13:33:43;;;;;;;4.30;1.40;;;;;;;20.99;36.80;99047.55;220736;1273;22677;-70
2022/05/15 13:44:18;;;;;;;2.20;0.90;;;;;;;20.98;37.04;99043.77;220437;1276;24127;-71
2022/05/15 13:49:35;;;;;;;3.00;1.70;;;;;;;21.00;36.63;99038.29;220836;1274;22733;-70
2022/05/15 13:54:44;;;;;;;4.70;1.80;;;;;;;20.98;35.90;99035.13;220813;1275;22548;-70
2022/05/15 13:59:52;;;;;;;2.70;1.40;;;;;;;20.99;36.20;99030.48;220668;1277;24141;-71
2022/05/15 14:05:01;;;;;;;3.30;0.90;;;;;;;21.09;36.44;99027.13;220509;1275;22668;-71
2022/05/15 14:10:23;;;;;;;2.80;1.60;;;;;;;21.19;36.00;99021.16;220535;1276;22540;-70
2022/05/15 14:15:41;;;;;;;3.00;1.10;;;;;;;21.20;35.44;99016.66;220567;1276;24241;-71
2022/05/15 14:20:54;;;;;;;2.00;1.00;;;;;;;21.24;35.25;99014.42;220690;1274;25405;-70
2022/05/15 14:26:08;;;;;;;0.80;0.80;;;;;;;21.22;35.21;99006.59;220559;1275;22718;-70
2022/05/15 14:31:15;;;;;;;2.00;1.00;;;;;;;21.25;35.21;99000.82;220808;1275;22603;-71
2022/05/15 14:36:23;;;;;;;1.40;1.10;;;;;;;21.28;35.41;98997.37;221381;1276;22864;-71
2022/05/15 14:41:26;;;;;;;4.10;1.40;;;;;;;21.23;35.33;98996.04;220572;1275;22551;-71
2022/05/15 14:46:32;;;;;;;3.00;1.30;;;;;;;21.16;35.49;98994.08;220960;1275;24229;-70
2022/05/15 14:51:46;;;;;;;3.80;1.20;;;;;;;21.21;35.81;98991.46;220877;1274;24326;-70
2022/05/15 14:56:57;;;;;;;2.70;1.00;;;;;;;21.29;35.23;98988.69;220581;1274;22905;-70
2022/05/15 15:01:59;;;;;;;1.40;0.90;;;;;;;21.38;35.21;98987.10;220434;1277;24422;-71
2022/05/15 15:07:14;;;;;;;3.00;1.40;;;;;;;21.43;34.98;98988.69;220964;1277;24300;-70
2022/05/15 15:12:16;;;;;;;1.50;0.90;;;;;;;21.44;34.72;98984.41;220421;1277;22570;-70
2022/05/15 15:17:19;;;;;;;2.20;1.00;;;;;;;21.44;34.66;98982.64;221225;1274;24316;-70
2022/05/15 15:22:23;;;;;;;2.20;1.20;;;;;;;21.38;34.89;98977.53;220553;1274;22707;-71
2022/05/15 15:27:26;;;;;;;2.30;1.30;;;;;;;21.36;35.21;98974.53;221664;1274;22583;-71
2022/05/15 15:32:31;;;;;;;2.60;1.40;;;;;;;21.34;34.88;98981.34;220404;1277;22561;-70
2022/05/15 15:43:21;;;;;;;2.20;1.00;;;;;;;21.13;35.19;98984.35;220446;1277;22629;-71
2022/05/15 15:48:27;;;;;;;2.60;1.00;;;;;;;21.15;35.53;98979.19;220566;1274;22534;-71
2022/05/15 15:53:29;;;;;;;1.80;1.00;;;;;;;21.21;35.45;98978.70;220583;1275;22562;-72
2022/05/15 15:58:46;;;;;;;1.80;0.80;;;;;;;21.17;34.68;98978.61;220462;1275;22713;-71
2022/05/15 16:04:19;;;;;;;4.50;1.10;;;;;;;21.09;34.90;98972.49;220541;1275;22555;-71
2022/05/15 16:09:38;;;;;;;1.70;0.90;;;;;;;21.01;34.94;98976.40;220434;1275;22567;-70
2022/05/15 16:14:58;;;;;;;1.60;1.00;;;;;;;20.90;35.13;98975.81;220405;1275;24769;-71
2022/05/15 16:20:00;;;;;;;2.10;1.00;;;;;;;20.85;35.41;98976.87;220331;1278;22624;-70
2022/05/15 16:25:17;;;;;;;2.30;0.80;;;;;;;20.75;35.13;98977.01;220651;1274;25443;-70
2022/05/15 16:30:50;;;;;;;3.10;1.20;;;;;;;20.72;35.20;98972.88;220862;1274;25967;-71
2022/05/15 16:36:28;;;;;;;3.40;1.00;;;;;;;20.73;35.41;98972.58;220629;1274;22528;-71
2022/05/15 16:41:42;;;;;;;4.40;1.20;;;;;;;20.66;35.16;98968.20;220547;1275;25262;-70
2022/05/15 16:47:08;;;;;;;1.60;0.70;;;;;;;20.60;35.05;98965.56;218791;1275;24325;-71
2022/05/15 16:52:10;;;;;;;2.20;0.90;;;;;;;20.52;35.31;98964.50;220755;1275;22583;-71
2022/05/15 16:57:13;;;;;;;2.30;0.80;;;;;;;20.41;35.20;98964.46;220651;1275;22627;-71
2022/05/15 17:02:15;;;;;;;2.90;1.70;;;;;;;20.27;35.23;98963.16;220523;1275;24265;-71
2022/05/15 17:07:17;;;;;;;1.60;0.80;;;;;;;20.20;35.25;98964.09;220567;1276;22547;-71
2022/05/15 17:12:19;;;;;;;3.50;1.10;;;;;;;20.15;35.60;98963.23;220616;1277;22939;-71
2022/05/15 17:17:21;;;;;;;2.40;0.80;;;;;;;20.23;35.53;98963.08;220604;1275;25181;-70
2022/05/15 17:22:24;;;;;;;1.80;0.80;;;;;;;21.30;35.94;98964.07;220569;1275;23124;-71
2022/05/15 17:27:26;;;;;;;1.40;0.80;;;;;;;22.76;34.91;98965.13;220543;1275;22666;-71
2022/05/15 17:37:50;;;;;;;3.80;1.10;;;;;;;21.95;33.74;98966.79;220470;1274;24318;-72
2022/05/15 17:42:56;;;;;;;4.10;1.10;;;;;;;21.11;34.27;98969.36;220554;1275;22626;-71
2022/05/15 17:47:59;;;;;;;2.60;0.90;;;;;;;20.39;35.03;98971.09;221592;1278;22562;-71
2022/05/15 17:53:02;;;;;;;2.70;1.00;;;;;;;19.86;35.68;98972.23;220894;1275;22902;-71
2022/05/15 17:58:07;;;;;;;1.70;1.30;;;;;;;19.44;36.21;98970.39;220572;1278;23150;-70
2022/05/15 18:03:10;;;;;;;1.80;1.50;;;;;;;19.09;36.90;98972.69;221573;1275;24279;-71
2022/05/15 18:08:12;;;;;;;2.60;1.40;;;;;;;18.77;37.45;98975.54;220500;1278;24051;-71
2022/05/15 18:13:15;;;;;;;2.00;1.70;;;;;;;18.46;37.78;98980.31;218712;1278;22573;-71
2022/05/15 18:18:18;;;;;;;2.20;1.60;;;;;;;18.19;38.23;98983.88;218830;1278;25532;-71
2022/05/15 18:23:22;;;;;;;1.80;0.90;;;;;;;17.93;38.64;98988.06;218833;1278;22562;-70
2022/05/15 18:28:24;;;;;;;1.90;1.00;;;;;;;17.66;39.10;98990.97;218991;1274;25336;-69
2022/05/15 18:33:26;;;;;;;1.50;1.00;;;;;;;17.40;39.52;98990.98;218961;1274;22599;-71
2022/05/15 18:38:36;;;;;;;2.50;1.20;;;;;;;17.16;39.94;98995.46;220440;1278;25133;-71
2022/05/15 18:43:59;;;;;;;2.60;1.00;;;;;;;16.90;40.48;98997.29;220518;1274;22621;-71
2022/05/15 18:49:01;;;;;;;2.30;1.40;;;;;;;16.65;40.91;99004.77;220698;1275;22538;-71
2022/05/15 18:59:27;;;;;;;2.70;1.20;;;;;;;16.23;42.11;99014.11;220515;1274;22895;-71
2022/05/15 19:04:35;;;;;;;3.70;1.30;;;;;;;16.00;42.54;99021.48;220751;1274;22722;-71
2022/05/15 19:09:37;;;;;;;2.90;1.50;;;;;;;15.76;43.17;99021.02;220403;1278;26397;-71
2022/05/15 19:14:42;;;;;;;2.50;1.50;;;;;;;15.53;43.45;99022.17;220627;1275;25257;-71
2022/05/15 19:19:44;;;;;;;1.40;1.20;;;;;;;15.33;43.74;99024.10;220574;1275;23075;-71
2022/05/15 19:24:47;;;;;;;2.50;1.40;;;;;;;15.18;43.83;99023.80;220655;1274;24297;-71
2022/05/15 19:29:54;;;;;;;2.00;1.40;;;;;;;15.06;44.17;99026.52;220613;1274;22602;-71
2022/05/15 19:34:56;;;;;;;2.40;1.30;;;;;;;14.94;44.19;99028.12;220490;1275;22555;-72
2022/05/15 19:40:01;;;;;;;7.50;2.60;;;;;;;14.84;44.50;99034.42;220549;1275;22556;-70
2022/05/15 19:45:20;;;;;;;4.00;1.90;;;;;;;14.74;44.42;99029.61;220523;1275;22586;-71
2022/05/15 19:50:39;;;;;;;2.60;1.70;;;;;;;14.67;44.40;99035.98;220784;1274;22610;-71
2022/05/15 19:55:47;;;;;;;3.80;1.90;;;;;;;14.60;44.94;99038.38;220710;1274;22587;-71
2022/05/15 20:00:53;;;;;;;3.10;1.70;;;;;;;14.48;45.95;99040.48;220894;1275;22812;-70
2022/05/15 20:11:32;;;;;;;3.50;2.40;;;;;;;14.07;47.46;99043.07;220707;1275;22543;-72
2022/05/15 20:17:01;;;;;;;3.60;2.30;;;;;;;13.86;47.89;99047.63;220651;1274;24233;-71
2022/05/15 20:22:16;;;;;;;5.50;2.90;;;;;;;13.66;48.25;99047.37;220557;1274;22686;-71
2022/05/15 20:27:41;;;;;;;6.10;3.10;;;;;;;13.49;48.76;99045.14;220456;1275;22573;-70
2022/05/15 20:32:46;;;;;;;3.20;2.10;;;;;;;13.33;49.04;99045.01;220413;1275;22575;-71
2022/05/15 20:37:58;;;;;;;4.10;2.40;;;;;;;13.17;49.78;99046.86;220540;1274;22537;-70
2022/05/15 20:43:10;;;;;;;3.70;2.20;;;;;;;13.01;50.54;99045.55;220401;1277;22641;-70
2022/05/15 20:48:17;;;;;;;3.00;2.50;;;;;;;12.86;51.28;99044.21;220662;1274;22548;-70
2022/05/15 20:53:22;;;;;;;5.30;2.30;;;;;;;12.72;51.41;99042.03;220534;1275;22557;-71
2022/05/15 20:58:24;;;;;;;6.70;2.70;;;;;;;12.59;51.70;99040.06;221519;1277;23052;-70
2022/05/15 21:03:27;;;;;;;4.10;2.50;;;;;;;12.45;51.96;99040.81;219280;1274;22534;-72
2022/05/15 21:08:29;;;;;;;5.10;2.60;;;;;;;12.33;52.31;99045.63;220231;1277;22679;-71
2022/05/15 21:13:41;;;;;;;4.80;2.90;;;;;;;12.19;52.92;99043.48;221544;1275;26506;-70
2022/05/15 21:18:45;;;;;;;4.30;3.00;;;;;;;12.05;53.15;99045.20;219062;1275;22585;-70
2022/05/15 21:23:52;;;;;;;7.60;3.30;;;;;;;11.95;54.02;99047.16;219132;1274;22550;-71
2022/05/15 21:28:54;;;;;;;7.60;3.80;;;;;;;11.86;54.47;99043.52;220738;1275;22579;-70
2022/05/15 21:33:59;;;;;;;7.50;3.50;;;;;;;11.76;55.08;99049.33;220591;1276;25371;-71
2022/05/15 21:44:46;;;;;;;7.40;4.50;;;;;;;11.60;56.31;99058.67;220741;1276;22562;-70
2022/05/15 21:50:00;;;;;;;6.10;4.10;;;;;;;11.49;56.98;99057.14;220581;1275;23611;-71
2022/05/15 21:55:28;;;;;;;5.50;3.40;;;;;;;11.35;56.98;99056.34;220730;1274;22559;-70
2022/05/15 22:00:30;;;;;;;5.90;4.10;;;;;;;11.22;57.09;99056.48;218876;1274;25403;-70
2022/05/15 22:05:38;;;;;;;6.10;4.40;;;;;;;11.10;57.55;99056.35;219439;1274;23861;-71
2022/05/15 22:10:49;;;;;;;9.30;4.50;;;;;;;10.99;58.03;99052.60;218886;1274;25253;-72
2022/05/15 22:15:53;;;;;;;9.10;4.50;;;;;;;10.88;57.99;99055.94;218823;1274;23349;-70
2022/05/15 22:21:08;;;;;;;6.70;4.40;;;;;;;10.74;58.15;99049.89;220539;1274;25542;-70
2022/05/15 22:26:18;;;;;;;5.50;4.10;;;;;;;10.63;58.62;99051.33;220544;1275;25295;-70
2022/05/15 22:31:21;;;;;;;8.10;4.70;;;;;;;10.55;59.06;99052.20;220588;1276;25224;-70
2022/05/15 22:36:27;;;;;;;9.60;4.80;;;;;;;10.49;59.49;99049.69;221169;1274;23924;-70
2022/05/15 22:41:32;;;;;;;7.10;4.90;;;;;;;10.44;60.25;99049.52;220714;1274;24771;-70
2022/05/15 22:46:50;;;;;;;7.80;4.90;;;;;;;10.41;60.58;99049.11;220704;1274;22725;-71
2022/05/15 22:52:13;;;;;;;12.60;5.60;;;;;;;10.35;60.60;99045.08;220885;1274;22627;-71
2022/05/15 22:57:18;;;;;;;9.70;5.90;;;;;;;10.30;61.00;99043.80;219001;1274;23864;-70
2022/05/15 23:02:21;;;;;;;8.40;6.20;;;;;;;10.25;61.10;99043.20;219125;1275;23809;-71
2022/05/15 23:07:29;;;;;;;11.70;6.10;;;;;;;10.18;61.22;99042.60;220518;1274;22562;-71
2022/05/15 23:12:34;;;;;;;9.30;6.90;;;;;;;10.10;61.25;99036.07;220343;1274;22580;-70
2022/05/15 23:17:40;;;;;;;7.20;5.70;;;;;;;10.02;61.65;99032.71;220467;1274;25321;-70
2022/05/15 23:22:48;;;;;;;8.60;6.00;;;;;;;9.94;61.94;99033.19;219176;1274;25258;-70
2022/05/15 23:28:33;;;;;;;9.70;6.30;;;;;;;9.86;62.24;99034.63;218928;1274;22546;-70
2022/05/15 23:33:37;;;;;;;9.50;6.10;;;;;;;9.77;62.36;99027.77;219265;1274;22618;-70
2022/05/15 23:38:42;;;;;;;9.60;5.80;;;;;;;9.65;62.46;99024.15;219383;1275;22556;-70
2022/05/15 23:43:45;;;;;;;9.90;6.40;;;;;;;9.54;62.72;99021.48;218940;1274;23847;-71
2022/05/15 23:48:48;;;;;;;8.50;6.20;;;;;;;9.45;62.93;99018.69;220329;1274;22606;-70
2022/05/15 23:53:55;;;;;;;9.70;6.20;;;;;;;9.36;63.06;99021.55;220651;1274;22580;-71
2022/05/15 23:58:58;;;;;;;9.70;6.80;;;;;;;9.31;63.49;99020.83;220637;1274;23412;-71
